sensor_id;sensor_type;location;lat;lon;timestamp;P1;durP1;ratioP1;P2;durP2;ratioP2
42000;SDS011;27689;48.390;10.856;2023-02-22T00:00:25;26.25;;;13.95;;
42000;SDS011;27689;48.390;10.856;2023-02-22T00:06:15;18.10;;;12.57;;
42000;SDS011;27689;48.390;10.856;2023-02-22T00:09:01;20.02;;;13.02;;
42000;SDS011;27689;48.390;10.856;2023-02-22T00:11:45;19.75;;;11.93;;
42000;SDS011;27689;48.390;10.856;2023-02-22T00:14:30;17.52;;;11.57;;
42000;SDS011;27689;48.390;10.856;2023-02-22T00:17:14;18.25;;;12.52;;
42000;SDS011;27689;48.390;10.856;2023-02-22T00:19:59;18.38;;;11.63;;
42000;SDS011;27689;48.390;10.856;2023-02-22T00:22:43;18.10;;;11.38;;
42000;SDS011;27689;48.390;10.856;2023-02-22T00:25:34;18.65;;;11.02;;
42000;SDS011;27689;48.390;10.856;2023-02-22T00:28:19;19.08;;;11.90;;
42000;SDS011;27689;48.390;10.856;2023-02-22T00:31:04;17.80;;;11.63;;
42000;SDS011;27689;48.390;10.856;2023-02-22T00:33:49;16.90;;;10.55;;
42000;SDS011;27689;48.390;10.856;2023-02-22T00:36:33;15.82;;;10.48;;
42000;SDS011;27689;48.390;10.856;2023-02-22T00:39:17;17.63;;;10.38;;
42000;SDS011;27689;48.390;10.856;2023-02-22T00:42:01;14.57;;;9.50;;
42000;SDS011;27689;48.390;10.856;2023-02-22T00:44:45;16.52;;;10.23;;
42000;SDS011;27689;48.390;10.856;2023-02-22T00:47:29;15.00;;;10.03;;
42000;SDS011;27689;48.390;10.856;2023-02-22T00:50:15;13.60;;;9.52;;
42000;SDS011;27689;48.390;10.856;2023-02-22T00:53:00;13.32;;;9.23;;
42000;SDS011;27689;48.390;10.856;2023-02-22T00:55:46;11.68;;;8.73;;
42000;SDS011;27689;48.390;10.856;2023-02-22T00:58:30;15.07;;;9.20;;
42000;SDS011;27689;48.390;10.856;2023-02-22T01:01:14;15.50;;;9.10;;
42000;SDS011;27689;48.390;10.856;2023-02-22T01:03:58;12.05;;;8.02;;
42000;SDS011;27689;48.390;10.856;2023-02-22T01:06:42;15.33;;;8.73;;
42000;SDS011;27689;48.390;10.856;2023-02-22T01:09:26;10.25;;;8.13;;
42000;SDS011;27689;48.390;10.856;2023-02-22T01:12:10;12.35;;;8.15;;
42000;SDS011;27689;48.390;10.856;2023-02-22T01:14:56;10.98;;;8.07;;
42000;SDS011;27689;48.390;10.856;2023-02-22T01:17:41;14.43;;;8.93;;
42000;SDS011;27689;48.390;10.856;2023-02-22T01:20:26;10.32;;;7.88;;
42000;SDS011;27689;48.390;10.856;2023-02-22T01:23:11;12.70;;;8.73;;
42000;SDS011;27689;48.390;10.856;2023-02-22T01:25:56;12.88;;;8.30;;
42000;SDS011;27689;48.390;10.856;2023-02-22T01:28:40;13.80;;;8.55;;
42000;SDS011;27689;48.390;10.856;2023-02-22T01:31:24;12.52;;;8.30;;
42000;SDS011;27689;48.390;10.856;2023-02-22T01:34:09;11.93;;;8.32;;
42000;SDS011;27689;48.390;10.856;2023-02-22T01:36:54;11.65;;;8.25;;
42000;SDS011;27689;48.390;10.856;2023-02-22T01:39:38;12.70;;;8.75;;
42000;SDS011;27689;48.390;10.856;2023-02-22T01:42:22;10.77;;;7.13;;
42000;SDS011;27689;48.390;10.856;2023-02-22T01:54:41;10.45;;;7.75;;
42000;SDS011;27689;48.390;10.856;2023-02-22T01:57:24;11.75;;;8.18;;
42000;SDS011;27689;48.390;10.856;2023-02-22T02:00:10;12.27;;;8.25;;
42000;SDS011;27689;48.390;10.856;2023-02-22T02:03:04;10.52;;;8.27;;
42000;SDS011;27689;48.390;10.856;2023-02-22T02:05:53;11.57;;;8.23;;
42000;SDS011;27689;48.390;10.856;2023-02-22T02:08:44;11.60;;;8.25;;
42000;SDS011;27689;48.390;10.856;2023-02-22T02:11:35;10.38;;;7.68;;
42000;SDS011;27689;48.390;10.856;2023-02-22T02:14:23;11.10;;;8.20;;
42000;SDS011;27689;48.390;10.856;2023-02-22T02:17:07;11.40;;;7.53;;
42000;SDS011;27689;48.390;10.856;2023-02-22T02:34:36;9.50;;;7.28;;
42000;SDS011;27689;48.390;10.856;2023-02-22T02:37:35;9.68;;;7.03;;
42000;SDS011;27689;48.390;10.856;2023-02-22T02:41:02;9.70;;;7.25;;
42000;SDS011;27689;48.390;10.856;2023-02-22T02:46:51;8.57;;;6.90;;
42000;SDS011;27689;48.390;10.856;2023-02-22T02:52:53;9.90;;;7.05;;
42000;SDS011;27689;48.390;10.856;2023-02-22T02:55:40;7.70;;;5.93;;
42000;SDS011;27689;48.390;10.856;2023-02-22T02:58:24;8.85;;;6.82;;
42000;SDS011;27689;48.390;10.856;2023-02-22T03:01:08;10.32;;;7.18;;
42000;SDS011;27689;48.390;10.856;2023-02-22T03:04:04;10.70;;;7.05;;
42000;SDS011;27689;48.390;10.856;2023-02-22T03:06:56;11.93;;;7.45;;
42000;SDS011;27689;48.390;10.856;2023-02-22T03:16:01;11.10;;;7.82;;
42000;SDS011;27689;48.390;10.856;2023-02-22T03:18:55;11.05;;;7.78;;
42000;SDS011;27689;48.390;10.856;2023-02-22T03:21:48;10.02;;;7.25;;
42000;SDS011;27689;48.390;10.856;2023-02-22T03:27:37;9.63;;;7.07;;
42000;SDS011;27689;48.390;10.856;2023-02-22T03:30:30;11.65;;;8.13;;
42000;SDS011;27689;48.390;10.856;2023-02-22T03:34:06;9.80;;;6.57;;
42000;SDS011;27689;48.390;10.856;2023-02-22T03:36:51;9.70;;;6.50;;
42000;SDS011;27689;48.390;10.856;2023-02-22T03:39:39;12.18;;;7.13;;
42000;SDS011;27689;48.390;10.856;2023-02-22T03:42:28;9.32;;;6.53;;
42000;SDS011;27689;48.390;10.856;2023-02-22T03:45:15;8.32;;;7.00;;
42000;SDS011;27689;48.390;10.856;2023-02-22T03:48:05;10.00;;;7.15;;
42000;SDS011;27689;48.390;10.856;2023-02-22T03:50:58;8.40;;;6.32;;
42000;SDS011;27689;48.390;10.856;2023-02-22T03:53:43;8.70;;;6.32;;
42000;SDS011;27689;48.390;10.856;2023-02-22T03:56:29;10.95;;;6.85;;
42000;SDS011;27689;48.390;10.856;2023-02-22T03:59:18;9.38;;;6.80;;
42000;SDS011;27689;48.390;10.856;2023-02-22T04:02:07;9.70;;;7.10;;
42000;SDS011;27689;48.390;10.856;2023-02-22T04:04:51;8.10;;;6.65;;
42000;SDS011;27689;48.390;10.856;2023-02-22T04:07:35;11.23;;;6.63;;
42000;SDS011;27689;48.390;10.856;2023-02-22T04:10:19;8.35;;;6.40;;
42000;SDS011;27689;48.390;10.856;2023-02-22T04:13:03;11.07;;;6.82;;
42000;SDS011;27689;48.390;10.856;2023-02-22T04:15:49;8.60;;;6.15;;
42000;SDS011;27689;48.390;10.856;2023-02-22T04:18:33;8.32;;;6.35;;
42000;SDS011;27689;48.390;10.856;2023-02-22T04:21:17;8.17;;;5.63;;
42000;SDS011;27689;48.390;10.856;2023-02-22T04:24:01;7.53;;;6.35;;
42000;SDS011;27689;48.390;10.856;2023-02-22T04:26:45;7.28;;;5.82;;
42000;SDS011;27689;48.390;10.856;2023-02-22T04:29:29;8.48;;;6.43;;
42000;SDS011;27689;48.390;10.856;2023-02-22T04:32:14;9.63;;;6.45;;
42000;SDS011;27689;48.390;10.856;2023-02-22T04:34:58;9.25;;;6.20;;
42000;SDS011;27689;48.390;10.856;2023-02-22T04:37:42;8.52;;;6.53;;
42000;SDS011;27689;48.390;10.856;2023-02-22T04:40:26;8.02;;;6.28;;
42000;SDS011;27689;48.390;10.856;2023-02-22T04:43:10;12.38;;;6.93;;
42000;SDS011;27689;48.390;10.856;2023-02-22T04:45:54;7.88;;;6.07;;
42000;SDS011;27689;48.390;10.856;2023-02-22T04:48:38;8.45;;;5.55;;
42000;SDS011;27689;48.390;10.856;2023-02-22T04:51:22;7.80;;;6.88;;
42000;SDS011;27689;48.390;10.856;2023-02-22T04:54:07;9.30;;;6.15;;
42000;SDS011;27689;48.390;10.856;2023-02-22T04:56:51;8.93;;;6.47;;
42000;SDS011;27689;48.390;10.856;2023-02-22T04:59:35;10.20;;;7.10;;
42000;SDS011;27689;48.390;10.856;2023-02-22T05:02:19;8.77;;;7.38;;
42000;SDS011;27689;48.390;10.856;2023-02-22T05:05:03;10.60;;;6.43;;
42000;SDS011;27689;48.390;10.856;2023-02-22T05:07:47;9.98;;;6.80;;
42000;SDS011;27689;48.390;10.856;2023-02-22T05:10:32;9.25;;;7.18;;
42000;SDS011;27689;48.390;10.856;2023-02-22T05:13:16;9.45;;;7.75;;
42000;SDS011;27689;48.390;10.856;2023-02-22T05:16:00;14.82;;;9.75;;
42000;SDS011;27689;48.390;10.856;2023-02-22T05:21:28;12.38;;;9.40;;
42000;SDS011;27689;48.390;10.856;2023-02-22T05:24:12;11.95;;;9.02;;
42000;SDS011;27689;48.390;10.856;2023-02-22T05:26:56;13.05;;;9.75;;
42000;SDS011;27689;48.390;10.856;2023-02-22T05:29:40;12.20;;;9.05;;
42000;SDS011;27689;48.390;10.856;2023-02-22T05:32:24;12.30;;;8.85;;
42000;SDS011;27689;48.390;10.856;2023-02-22T05:35:10;13.80;;;8.98;;
42000;SDS011;27689;48.390;10.856;2023-02-22T05:37:54;10.98;;;8.88;;
42000;SDS011;27689;48.390;10.856;2023-02-22T05:40:39;14.38;;;8.63;;
42000;SDS011;27689;48.390;10.856;2023-02-22T05:43:24;10.35;;;8.48;;
42000;SDS011;27689;48.390;10.856;2023-02-22T05:46:08;10.00;;;8.48;;
42000;SDS011;27689;48.390;10.856;2023-02-22T05:48:51;10.13;;;8.47;;
42000;SDS011;27689;48.390;10.856;2023-02-22T05:51:36;12.85;;;8.77;;
42000;SDS011;27689;48.390;10.856;2023-02-22T05:54:19;10.10;;;7.82;;
42000;SDS011;27689;48.390;10.856;2023-02-22T05:57:03;12.65;;;8.60;;
42000;SDS011;27689;48.390;10.856;2023-02-22T05:59:47;11.00;;;8.43;;
42000;SDS011;27689;48.390;10.856;2023-02-22T06:02:32;11.48;;;8.77;;
42000;SDS011;27689;48.390;10.856;2023-02-22T06:05:16;10.32;;;8.15;;
42000;SDS011;27689;48.390;10.856;2023-02-22T06:08:00;10.90;;;8.75;;
42000;SDS011;27689;48.390;10.856;2023-02-22T06:10:46;12.00;;;8.90;;
42000;SDS011;27689;48.390;10.856;2023-02-22T06:13:30;11.77;;;8.20;;
42000;SDS011;27689;48.390;10.856;2023-02-22T06:16:14;11.13;;;8.13;;
42000;SDS011;27689;48.390;10.856;2023-02-22T06:18:58;10.80;;;7.80;;
42000;SDS011;27689;48.390;10.856;2023-02-22T06:21:49;13.70;;;8.32;;
42000;SDS011;27689;48.390;10.856;2023-02-22T06:24:37;11.10;;;8.85;;
42000;SDS011;27689;48.390;10.856;2023-02-22T06:27:21;10.40;;;8.02;;
42000;SDS011;27689;48.390;10.856;2023-02-22T06:30:05;11.75;;;8.48;;
42000;SDS011;27689;48.390;10.856;2023-02-22T06:32:49;12.70;;;8.70;;
42000;SDS011;27689;48.390;10.856;2023-02-22T06:35:33;12.18;;;8.43;;
42000;SDS011;27689;48.390;10.856;2023-02-22T06:38:21;11.68;;;9.02;;
42000;SDS011;27689;48.390;10.856;2023-02-22T06:41:07;11.52;;;8.65;;
42000;SDS011;27689;48.390;10.856;2023-02-22T06:43:51;14.52;;;9.10;;
42000;SDS011;27689;48.390;10.856;2023-02-22T06:46:36;12.57;;;8.82;;
42000;SDS011;27689;48.390;10.856;2023-02-22T06:49:21;11.63;;;7.63;;
42000;SDS011;27689;48.390;10.856;2023-02-22T06:52:05;9.37;;;7.77;;
42000;SDS011;27689;48.390;10.856;2023-02-22T06:54:49;9.00;;;7.60;;
42000;SDS011;27689;48.390;10.856;2023-02-22T06:57:34;11.45;;;8.40;;
42000;SDS011;27689;48.390;10.856;2023-02-22T07:00:18;13.88;;;9.60;;
42000;SDS011;27689;48.390;10.856;2023-02-22T07:03:04;13.48;;;9.43;;
42000;SDS011;27689;48.390;10.856;2023-02-22T07:05:48;14.52;;;10.20;;
42000;SDS011;27689;48.390;10.856;2023-02-22T07:08:32;15.50;;;10.45;;
42000;SDS011;27689;48.390;10.856;2023-02-22T07:11:16;11.02;;;8.73;;
42000;SDS011;27689;48.390;10.856;2023-02-22T07:14:00;11.23;;;8.18;;
42000;SDS011;27689;48.390;10.856;2023-02-22T07:16:44;17.67;;;10.38;;
42000;SDS011;27689;48.390;10.856;2023-02-22T07:19:28;11.85;;;9.98;;
42000;SDS011;27689;48.390;10.856;2023-02-22T07:22:12;16.58;;;9.90;;
42000;SDS011;27689;48.390;10.856;2023-02-22T07:24:56;18.88;;;9.93;;
42000;SDS011;27689;48.390;10.856;2023-02-22T07:27:40;16.83;;;10.80;;
42000;SDS011;27689;48.390;10.856;2023-02-22T07:30:29;18.60;;;10.80;;
42000;SDS011;27689;48.390;10.856;2023-02-22T07:33:14;21.20;;;10.48;;
42000;SDS011;27689;48.390;10.856;2023-02-22T07:35:58;14.80;;;10.32;;
42000;SDS011;27689;48.390;10.856;2023-02-22T07:38:43;15.50;;;10.80;;
42000;SDS011;27689;48.390;10.856;2023-02-22T07:41:28;21.02;;;10.32;;
42000;SDS011;27689;48.390;10.856;2023-02-22T07:44:12;19.45;;;9.90;;
42000;SDS011;27689;48.390;10.856;2023-02-22T07:46:56;15.70;;;9.93;;
42000;SDS011;27689;48.390;10.856;2023-02-22T07:49:40;20.88;;;10.60;;
42000;SDS011;27689;48.390;10.856;2023-02-22T07:52:24;15.27;;;9.73;;
42000;SDS011;27689;48.390;10.856;2023-02-22T07:55:08;14.88;;;10.95;;
42000;SDS011;27689;48.390;10.856;2023-02-22T07:57:52;14.80;;;10.25;;
42000;SDS011;27689;48.390;10.856;2023-02-22T08:00:39;15.05;;;10.05;;
42000;SDS011;27689;48.390;10.856;2023-02-22T08:06:08;15.57;;;9.73;;
42000;SDS011;27689;48.390;10.856;2023-02-22T08:08:52;12.82;;;9.18;;
42000;SDS011;27689;48.390;10.856;2023-02-22T08:11:36;16.08;;;8.60;;
42000;SDS011;27689;48.390;10.856;2023-02-22T08:14:20;15.73;;;8.63;;
42000;SDS011;27689;48.390;10.856;2023-02-22T08:17:04;13.73;;;8.60;;
42000;SDS011;27689;48.390;10.856;2023-02-22T08:19:48;17.75;;;8.68;;
42000;SDS011;27689;48.390;10.856;2023-02-22T08:22:32;15.02;;;8.43;;
42000;SDS011;27689;48.390;10.856;2023-02-22T08:25:16;19.65;;;7.72;;
42000;SDS011;27689;48.390;10.856;2023-02-22T08:28:04;11.95;;;7.63;;
42000;SDS011;27689;48.390;10.856;2023-02-22T08:30:51;11.20;;;6.80;;
42000;SDS011;27689;48.390;10.856;2023-02-22T08:33:35;17.00;;;7.10;;
42000;SDS011;27689;48.390;10.856;2023-02-22T08:36:19;12.60;;;6.57;;
42000;SDS011;27689;48.390;10.856;2023-02-22T08:39:03;9.75;;;5.65;;
42000;SDS011;27689;48.390;10.856;2023-02-22T08:41:47;11.15;;;5.72;;
42000;SDS011;27689;48.390;10.856;2023-02-22T08:44:31;13.27;;;6.53;;
42000;SDS011;27689;48.390;10.856;2023-02-22T08:47:15;16.33;;;6.47;;
42000;SDS011;27689;48.390;10.856;2023-02-22T08:49:59;9.38;;;6.00;;
42000;SDS011;27689;48.390;10.856;2023-02-22T08:52:44;10.90;;;5.38;;
42000;SDS011;27689;48.390;10.856;2023-02-22T08:55:29;10.93;;;5.70;;
42000;SDS011;27689;48.390;10.856;2023-02-22T08:58:16;11.75;;;5.03;;
42000;SDS011;27689;48.390;10.856;2023-02-22T09:00:59;8.88;;;4.95;;
42000;SDS011;27689;48.390;10.856;2023-02-22T09:03:46;10.23;;;5.05;;
42000;SDS011;27689;48.390;10.856;2023-02-22T09:06:31;6.60;;;4.38;;
42000;SDS011;27689;48.390;10.856;2023-02-22T09:09:15;9.57;;;5.13;;
42000;SDS011;27689;48.390;10.856;2023-02-22T09:12:01;11.20;;;5.35;;
42000;SDS011;27689;48.390;10.856;2023-02-22T09:14:45;11.35;;;5.60;;
42000;SDS011;27689;48.390;10.856;2023-02-22T09:17:29;9.00;;;5.37;;
42000;SDS011;27689;48.390;10.856;2023-02-22T09:20:15;9.00;;;4.88;;
42000;SDS011;27689;48.390;10.856;2023-02-22T09:23:01;11.48;;;5.40;;
42000;SDS011;27689;48.390;10.856;2023-02-22T09:25:46;7.07;;;5.30;;
42000;SDS011;27689;48.390;10.856;2023-02-22T09:28:31;8.15;;;5.03;;
42000;SDS011;27689;48.390;10.856;2023-02-22T09:31:14;11.13;;;5.40;;
42000;SDS011;27689;48.390;10.856;2023-02-22T09:33:59;9.25;;;4.88;;
42000;SDS011;27689;48.390;10.856;2023-02-22T09:36:42;9.50;;;4.75;;
42000;SDS011;27689;48.390;10.856;2023-02-22T09:39:28;6.78;;;4.43;;
42000;SDS011;27689;48.390;10.856;2023-02-22T09:45:13;8.63;;;4.60;;
42000;SDS011;27689;48.390;10.856;2023-02-22T09:50:50;18.38;;;5.45;;
42000;SDS011;27689;48.390;10.856;2023-02-22T09:53:38;11.60;;;6.30;;
42000;SDS011;27689;48.390;10.856;2023-02-22T09:56:27;7.93;;;4.55;;
42000;SDS011;27689;48.390;10.856;2023-02-22T09:59:14;9.07;;;4.47;;
42000;SDS011;27689;48.390;10.856;2023-02-22T10:02:16;8.93;;;4.78;;
42000;SDS011;27689;48.390;10.856;2023-02-22T10:05:07;8.35;;;4.82;;
42000;SDS011;27689;48.390;10.856;2023-02-22T10:08:01;7.38;;;4.55;;
42000;SDS011;27689;48.390;10.856;2023-02-22T10:10:51;7.82;;;4.03;;
42000;SDS011;27689;48.390;10.856;2023-02-22T10:14:09;9.20;;;3.95;;
42000;SDS011;27689;48.390;10.856;2023-02-22T10:23:40;6.68;;;4.00;;
42000;SDS011;27689;48.390;10.856;2023-02-22T10:26:39;14.25;;;7.95;;
42000;SDS011;27689;48.390;10.856;2023-02-22T10:29:39;6.68;;;2.53;;
42000;SDS011;27689;48.390;10.856;2023-02-22T10:32:30;5.25;;;2.85;;
42000;SDS011;27689;48.390;10.856;2023-02-22T10:35:25;5.85;;;2.80;;
42000;SDS011;27689;48.390;10.856;2023-02-22T10:38:22;6.53;;;3.92;;
42000;SDS011;27689;48.390;10.856;2023-02-22T10:43:53;4.07;;;2.40;;
42000;SDS011;27689;48.390;10.856;2023-02-22T10:49:23;7.93;;;2.50;;
42000;SDS011;27689;48.390;10.856;2023-02-22T10:55:16;6.32;;;2.28;;
42000;SDS011;27689;48.390;10.856;2023-02-22T10:58:04;6.03;;;2.53;;
42000;SDS011;27689;48.390;10.856;2023-02-22T11:00:49;5.47;;;2.47;;
42000;SDS011;27689;48.390;10.856;2023-02-22T11:03:34;4.95;;;1.92;;
42000;SDS011;27689;48.390;10.856;2023-02-22T11:06:18;4.63;;;1.92;;
42000;SDS011;27689;48.390;10.856;2023-02-22T11:09:03;5.13;;;2.35;;
42000;SDS011;27689;48.390;10.856;2023-02-22T11:11:50;5.53;;;2.25;;
42000;SDS011;27689;48.390;10.856;2023-02-22T11:14:50;3.50;;;1.77;;
42000;SDS011;27689;48.390;10.856;2023-02-22T11:17:34;4.22;;;1.88;;
42000;SDS011;27689;48.390;10.856;2023-02-22T11:23:08;3.42;;;1.40;;
42000;SDS011;27689;48.390;10.856;2023-02-22T11:25:59;3.00;;;1.55;;
42000;SDS011;27689;48.390;10.856;2023-02-22T11:28:49;3.65;;;1.58;;
42000;SDS011;27689;48.390;10.856;2023-02-22T11:31:41;5.13;;;1.95;;
42000;SDS011;27689;48.390;10.856;2023-02-22T11:34:34;5.38;;;2.20;;
42000;SDS011;27689;48.390;10.856;2023-02-22T11:40:13;4.22;;;1.83;;
42000;SDS011;27689;48.390;10.856;2023-02-22T11:43:08;3.63;;;1.70;;
42000;SDS011;27689;48.390;10.856;2023-02-22T11:46:04;2.60;;;1.52;;
42000;SDS011;27689;48.390;10.856;2023-02-22T11:49:01;3.08;;;1.20;;
42000;SDS011;27689;48.390;10.856;2023-02-22T11:51:58;3.20;;;2.08;;
42000;SDS011;27689;48.390;10.856;2023-02-22T11:57:45;4.07;;;2.13;;
42000;SDS011;27689;48.390;10.856;2023-02-22T12:00:50;3.58;;;1.63;;
42000;SDS011;27689;48.390;10.856;2023-02-22T12:20:14;5.53;;;2.40;;
42000;SDS011;27689;48.390;10.856;2023-02-22T12:26:19;3.35;;;1.60;;
42000;SDS011;27689;48.390;10.856;2023-02-22T12:32:37;4.72;;;1.55;;
42000;SDS011;27689;48.390;10.856;2023-02-22T12:35:31;3.45;;;1.58;;
42000;SDS011;27689;48.390;10.856;2023-02-22T12:38:20;2.53;;;1.50;;
42000;SDS011;27689;48.390;10.856;2023-02-22T12:41:33;5.63;;;1.83;;
42000;SDS011;27689;48.390;10.856;2023-02-22T12:47:15;3.25;;;1.83;;
42000;SDS011;27689;48.390;10.856;2023-02-22T12:50:09;4.63;;;2.75;;
42000;SDS011;27689;48.390;10.856;2023-02-22T12:53:02;4.88;;;1.80;;
42000;SDS011;27689;48.390;10.856;2023-02-22T12:58:57;2.65;;;1.58;;
42000;SDS011;27689;48.390;10.856;2023-02-22T13:04:59;6.43;;;1.92;;
42000;SDS011;27689;48.390;10.856;2023-02-22T13:10:45;4.03;;;1.95;;
42000;SDS011;27689;48.390;10.856;2023-02-22T13:16:58;3.17;;;1.95;;
42000;SDS011;27689;48.390;10.856;2023-02-22T13:19:54;3.20;;;1.90;;
42000;SDS011;27689;48.390;10.856;2023-02-22T13:22:48;5.32;;;2.70;;
42000;SDS011;27689;48.390;10.856;2023-02-22T13:25:43;3.97;;;2.10;;
42000;SDS011;27689;48.390;10.856;2023-02-22T13:31:24;4.03;;;2.88;;
42000;SDS011;27689;48.390;10.856;2023-02-22T13:37:50;2.80;;;2.33;;
42000;SDS011;27689;48.390;10.856;2023-02-22T13:43:55;8.82;;;3.17;;
42000;SDS011;27689;48.390;10.856;2023-02-22T13:50:23;4.60;;;2.88;;
42000;SDS011;27689;48.390;10.856;2023-02-22T13:53:11;4.78;;;2.53;;
42000;SDS011;27689;48.390;10.856;2023-02-22T13:55:59;5.82;;;3.28;;
42000;SDS011;27689;48.390;10.856;2023-02-22T13:58:51;4.35;;;3.10;;
42000;SDS011;27689;48.390;10.856;2023-02-22T14:01:40;6.53;;;3.90;;
42000;SDS011;27689;48.390;10.856;2023-02-22T14:04:32;5.40;;;3.83;;
42000;SDS011;27689;48.390;10.856;2023-02-22T14:11:07;7.57;;;5.10;;
42000;SDS011;27689;48.390;10.856;2023-02-22T14:16:38;7.05;;;4.85;;
42000;SDS011;27689;48.390;10.856;2023-02-22T14:19:23;7.47;;;5.18;;
42000;SDS011;27689;48.390;10.856;2023-02-22T14:22:07;9.60;;;5.30;;
42000;SDS011;27689;48.390;10.856;2023-02-22T14:24:55;9.15;;;5.65;;
42000;SDS011;27689;48.390;10.856;2023-02-22T14:27:40;11.70;;;5.78;;
42000;SDS011;27689;48.390;10.856;2023-02-22T14:30:26;8.93;;;6.10;;
42000;SDS011;27689;48.390;10.856;2023-02-22T14:43:05;12.32;;;7.35;;
42000;SDS011;27689;48.390;10.856;2023-02-22T14:45:31;10.85;;;6.95;;
42000;SDS011;27689;48.390;10.856;2023-02-22T14:48:35;11.80;;;7.85;;
42000;SDS011;27689;48.390;10.856;2023-02-22T14:51:26;12.60;;;8.10;;
42000;SDS011;27689;48.390;10.856;2023-02-22T14:54:18;15.02;;;8.35;;
42000;SDS011;27689;48.390;10.856;2023-02-22T14:57:11;13.38;;;7.93;;
42000;SDS011;27689;48.390;10.856;2023-02-22T15:00:12;12.80;;;8.38;;
42000;SDS011;27689;48.390;10.856;2023-02-22T15:03:03;15.95;;;9.40;;
42000;SDS011;27689;48.390;10.856;2023-02-22T15:05:47;14.37;;;8.70;;
42000;SDS011;27689;48.390;10.856;2023-02-22T15:11:24;14.60;;;8.55;;
42000;SDS011;27689;48.390;10.856;2023-02-22T15:14:19;14.63;;;8.88;;
42000;SDS011;27689;48.390;10.856;2023-02-22T15:20:19;11.82;;;7.78;;
42000;SDS011;27689;48.390;10.856;2023-02-22T15:23:03;16.48;;;10.00;;
42000;SDS011;27689;48.390;10.856;2023-02-22T15:25:47;13.77;;;9.13;;
42000;SDS011;27689;48.390;10.856;2023-02-22T15:28:32;13.13;;;8.65;;
42000;SDS011;27689;48.390;10.856;2023-02-22T15:34:29;15.15;;;9.77;;
42000;SDS011;27689;48.390;10.856;2023-02-22T15:37:23;17.27;;;10.18;;
42000;SDS011;27689;48.390;10.856;2023-02-22T15:40:10;19.97;;;10.37;;
42000;SDS011;27689;48.390;10.856;2023-02-22T15:45:51;14.98;;;9.20;;
42000;SDS011;27689;48.390;10.856;2023-02-22T15:48:35;15.75;;;10.07;;
42000;SDS011;27689;48.390;10.856;2023-02-22T15:51:23;18.77;;;12.98;;
42000;SDS011;27689;48.390;10.856;2023-02-22T15:54:07;14.70;;;9.17;;
42000;SDS011;27689;48.390;10.856;2023-02-22T15:56:58;23.30;;;16.58;;
42000;SDS011;27689;48.390;10.856;2023-02-22T15:59:43;21.83;;;13.75;;
42000;SDS011;27689;48.390;10.856;2023-02-22T16:02:32;22.80;;;13.82;;
42000;SDS011;27689;48.390;10.856;2023-02-22T16:05:27;21.48;;;14.98;;
42000;SDS011;27689;48.390;10.856;2023-02-22T16:08:20;18.17;;;11.75;;
42000;SDS011;27689;48.390;10.856;2023-02-22T16:11:07;17.73;;;10.82;;
42000;SDS011;27689;48.390;10.856;2023-02-22T16:14:03;17.45;;;12.40;;
42000;SDS011;27689;48.390;10.856;2023-02-22T16:16:48;22.85;;;15.30;;
42000;SDS011;27689;48.390;10.856;2023-02-22T16:19:36;19.75;;;13.05;;
42000;SDS011;27689;48.390;10.856;2023-02-22T16:28:23;16.00;;;11.18;;
42000;SDS011;27689;48.390;10.856;2023-02-22T16:31:17;16.25;;;10.70;;
42000;SDS011;27689;48.390;10.856;2023-02-22T16:34:03;16.20;;;10.10;;
42000;SDS011;27689;48.390;10.856;2023-02-22T16:36:49;15.07;;;10.25;;
42000;SDS011;27689;48.390;10.856;2023-02-22T16:39:34;14.48;;;9.93;;
42000;SDS011;27689;48.390;10.856;2023-02-22T16:42:18;14.85;;;9.48;;
42000;SDS011;27689;48.390;10.856;2023-02-22T16:45:07;13.40;;;8.98;;
42000;SDS011;27689;48.390;10.856;2023-02-22T16:47:51;13.75;;;9.05;;
42000;SDS011;27689;48.390;10.856;2023-02-22T16:50:36;13.02;;;9.45;;
42000;SDS011;27689;48.390;10.856;2023-02-22T16:53:21;15.65;;;9.48;;
42000;SDS011;27689;48.390;10.856;2023-02-22T16:56:07;13.05;;;9.80;;
42000;SDS011;27689;48.390;10.856;2023-02-22T16:58:54;15.02;;;10.85;;
42000;SDS011;27689;48.390;10.856;2023-02-22T17:01:38;13.73;;;10.80;;
42000;SDS011;27689;48.390;10.856;2023-02-22T17:04:24;14.90;;;10.27;;
42000;SDS011;27689;48.390;10.856;2023-02-22T17:07:08;10.50;;;8.95;;
42000;SDS011;27689;48.390;10.856;2023-02-22T17:09:53;10.70;;;8.37;;
42000;SDS011;27689;48.390;10.856;2023-02-22T17:12:37;10.85;;;8.85;;
42000;SDS011;27689;48.390;10.856;2023-02-22T17:15:27;11.98;;;8.80;;
42000;SDS011;27689;48.390;10.856;2023-02-22T17:18:24;11.43;;;7.75;;
42000;SDS011;27689;48.390;10.856;2023-02-22T17:21:10;11.60;;;9.23;;
42000;SDS011;27689;48.390;10.856;2023-02-22T17:23:55;12.60;;;9.47;;
42000;SDS011;27689;48.390;10.856;2023-02-22T17:26:40;10.77;;;8.43;;
42000;SDS011;27689;48.390;10.856;2023-02-22T17:29:24;10.77;;;8.30;;
42000;SDS011;27689;48.390;10.856;2023-02-22T17:32:11;10.18;;;8.15;;
42000;SDS011;27689;48.390;10.856;2023-02-22T17:34:55;10.88;;;8.57;;
42000;SDS011;27689;48.390;10.856;2023-02-22T17:37:39;10.70;;;7.85;;
42000;SDS011;27689;48.390;10.856;2023-02-22T17:40:23;11.83;;;8.57;;
42000;SDS011;27689;48.390;10.856;2023-02-22T17:43:06;14.05;;;10.32;;
42000;SDS011;27689;48.390;10.856;2023-02-22T17:45:51;12.82;;;9.68;;
42000;SDS011;27689;48.390;10.856;2023-02-22T17:48:36;9.57;;;8.55;;
42000;SDS011;27689;48.390;10.856;2023-02-22T17:54:06;13.15;;;9.60;;
42000;SDS011;27689;48.390;10.856;2023-02-22T17:56:50;12.90;;;9.90;;
42000;SDS011;27689;48.390;10.856;2023-02-22T17:59:40;12.80;;;9.98;;
42000;SDS011;27689;48.390;10.856;2023-02-22T18:05:56;14.85;;;10.60;;
42000;SDS011;27689;48.390;10.856;2023-02-22T18:08:41;14.88;;;11.20;;
42000;SDS011;27689;48.390;10.856;2023-02-22T18:11:26;16.80;;;11.73;;
42000;SDS011;27689;48.390;10.856;2023-02-22T18:14:15;14.18;;;11.65;;
42000;SDS011;27689;48.390;10.856;2023-02-22T18:16:58;14.52;;;11.95;;
42000;SDS011;27689;48.390;10.856;2023-02-22T18:19:44;18.23;;;12.15;;
42000;SDS011;27689;48.390;10.856;2023-02-22T18:22:28;15.40;;;12.02;;
42000;SDS011;27689;48.390;10.856;2023-02-22T18:25:12;16.13;;;12.52;;
42000;SDS011;27689;48.390;10.856;2023-02-22T18:27:58;17.30;;;11.75;;
42000;SDS011;27689;48.390;10.856;2023-02-22T18:30:42;16.10;;;12.20;;
42000;SDS011;27689;48.390;10.856;2023-02-22T18:33:26;14.20;;;11.55;;
42000;SDS011;27689;48.390;10.856;2023-02-22T18:36:11;16.15;;;11.88;;
42000;SDS011;27689;48.390;10.856;2023-02-22T18:38:56;22.02;;;16.42;;
42000;SDS011;27689;48.390;10.856;2023-02-22T18:41:40;18.35;;;14.70;;
42000;SDS011;27689;48.390;10.856;2023-02-22T18:44:24;17.80;;;14.20;;
42000;SDS011;27689;48.390;10.856;2023-02-22T18:47:09;19.00;;;14.82;;
42000;SDS011;27689;48.390;10.856;2023-02-22T18:49:53;18.73;;;14.90;;
42000;SDS011;27689;48.390;10.856;2023-02-22T18:52:38;20.52;;;14.15;;
42000;SDS011;27689;48.390;10.856;2023-02-22T18:55:28;16.85;;;13.50;;
42000;SDS011;27689;48.390;10.856;2023-02-22T18:58:12;17.33;;;13.52;;
42000;SDS011;27689;48.390;10.856;2023-02-22T19:00:56;18.60;;;14.38;;
42000;SDS011;27689;48.390;10.856;2023-02-22T19:03:40;28.35;;;18.02;;
42000;SDS011;27689;48.390;10.856;2023-02-22T19:06:24;34.85;;;23.20;;
42000;SDS011;27689;48.390;10.856;2023-02-22T19:09:08;36.37;;;23.57;;